Time;durP1;ratioP1;P1;durP2;ratioP2;P2;SDS_P1;SDS_P2;PMS_P1;PMS_P2;Temp;Humidity;BMP_temperature;BMP_pressure;BME280_temperature;BME280_humidity;BME280_pressure;Samples;Min_cycle;Max_cycle;Signal;HPM_P1;HPM_P2
2022/09/29 00:02:17;;;;;;;6.10;2.70;;;8.20;99.90;;;;;;5076317;28;20049;-66
2022/09/29 00:04:43;;;;;;;4.83;2.90;;;8.20;99.90;;;;;;5058006;28;20534;-66
2022/09/29 00:07:08;;;;;;;8.70;3.87;;;8.20;99.90;;;;;;5076157;28;20047;-66
2022/09/29 00:09:34;;;;;;;7.17;3.60;;;8.20;99.90;;;;;;5076140;28;20044;-66
2022/09/29 00:12:00;;;;;;;5.33;3.43;;;8.20;99.90;;;;;;5057982;28;20126;-66
2022/09/29 00:14:25;;;;;;;5.67;3.60;;;8.20;99.90;;;;;;5076260;28;20464;-66
2022/09/29 00:16:52;;;;;;;5.07;3.27;;;8.20;99.90;;;;;;5075354;28;20140;-66
2022/09/29 00:19:18;;;;;;;5.17;3.27;;;8.20;99.90;;;;;;5076052;28;20088;-66
2022/09/29 00:21:44;;;;;;;5.23;3.43;;;8.20;99.90;;;;;;5057651;28;20424;-66
2022/09/29 00:24:10;;;;;;;5.50;4.07;;;8.10;99.90;;;;;;5076047;28;20306;-66
2022/09/29 00:26:36;;;;;;;7.40;4.13;;;8.10;99.90;;;;;;5075773;28;20361;-66
2022/09/29 00:29:02;;;;;;;6.97;3.93;;;8.20;99.90;;;;;;5075519;28;20361;-67
2022/09/29 00:31:29;;;;;;;6.57;4.23;;;8.20;99.90;;;;;;5058010;28;20076;-66
2022/09/29 00:33:56;;;;;;;6.20;3.97;;;8.10;99.90;;;;;;5057532;28;20052;-66
2022/09/29 00:36:22;;;;;;;6.63;3.83;;;8.10;99.90;;;;;;5075593;28;20283;-66
2022/09/29 00:38:51;;;;;;;6.83;3.90;;;8.10;99.90;;;;;;5075323;28;20275;-67
2022/09/29 00:41:26;;;;;;;9.10;4.07;;;8.20;99.90;;;;;;5057779;28;20309;-66
2022/09/29 00:44:13;;;;;;;6.05;4.10;;;8.10;99.90;;;;;;5075158;28;20765;-66
2022/09/29 00:46:47;;;;;;;6.00;3.93;;;8.10;99.90;;;;;;5075501;28;20075;-66
2022/09/29 00:49:23;;;;;;;7.27;4.23;;;8.10;99.90;;;;;;5075476;28;20314;-66
2022/09/29 00:51:55;;;;;;;6.60;4.27;;;8.10;99.90;;;;;;5075186;28;20283;-67
2022/09/29 00:54:26;;;;;;;5.57;3.77;;;8.10;99.90;;;;;;5074686;28;20311;-66
2022/09/29 00:56:52;;;;;;;9.17;5.07;;;8.00;99.90;;;;;;5075117;28;20274;-67
2022/09/29 00:59:27;;;;;;;10.03;7.00;;;8.00;99.90;;;;;;5075563;28;20283;-66
2022/09/29 01:01:53;;;;;;;;;;;8.00;99.90;;;;;;5075442;28;20116;-66
2022/09/29 01:04:21;;;;;;;8.23;4.80;;;7.90;99.90;;;;;;5075138;28;19974;-66
2022/09/29 01:06:57;;;;;;;7.20;4.60;;;7.90;99.90;;;;;;5075149;28;20287;-66
2022/09/29 01:09:29;;;;;;;8.10;4.70;;;7.90;99.90;;;;;;5075334;28;20279;-66
2022/09/29 01:11:59;;;;;;;7.23;4.70;;;7.90;99.90;;;;;;5074481;28;20754;-67
2022/09/29 01:14:26;;;;;;;7.00;4.90;;;7.90;99.90;;;;;;5075122;28;20289;-66
2022/09/29 01:16:51;;;;;;;7.37;4.83;;;8.00;99.90;;;;;;5074604;28;20326;-67
2022/09/29 01:19:26;;;;;;;7.17;4.50;;;7.90;99.90;;;;;;5074879;28;20321;-67
2022/09/29 01:22:10;;;;;;;7.80;5.00;;;7.90;99.90;;;;;;5074607;28;20094;-67
2022/09/29 01:24:55;;;;;;;6.53;4.90;;;7.90;99.90;;;;;;5074801;28;20053;-66
2022/09/29 01:27:55;;;;;;;6.90;4.80;;;7.90;99.90;;;;;;5075042;28;20283;-66
2022/09/29 01:30:39;;;;;;;7.63;4.70;;;7.90;99.90;;;;;;5074730;28;20051;-66
2022/09/29 01:33:21;;;;;;;7.10;5.00;;;7.90;99.90;;;;;;5074451;28;20669;-66
2022/09/29 01:36:04;;;;;;;6.83;4.80;;;7.80;99.90;;;;;;5074426;28;20746;-67
2022/09/29 01:38:54;;;;;;;7.47;4.37;;;7.80;99.90;;;;;;5040361;28;20635;-66
2022/09/29 01:41:37;;;;;;;6.23;4.40;;;7.80;99.90;;;;;;5074617;28;20789;-67
2022/09/29 01:44:15;;;;;;;6.27;4.80;;;7.80;99.90;;;;;;5074237;28;20283;-67
2022/09/29 01:46:48;;;;;;;8.40;4.90;;;7.80;99.90;;;;;;5074363;28;20315;-67
2022/09/29 01:49:16;;;;;;;7.07;4.93;;;7.80;99.90;;;;;;5073974;28;20274;-67
2022/09/29 01:51:58;;;;;;;8.47;4.50;;;7.80;99.90;;;;;;5074134;28;20267;-66
2022/09/29 01:54:47;;;;;;;6.80;4.80;;;7.70;99.90;;;;;;5074288;28;20275;-67
2022/09/29 01:57:35;;;;;;;6.23;4.47;;;7.70;99.90;;;;;;5058556;28;20373;-66
2022/09/29 02:00:05;;;;;;;6.33;4.70;;;7.70;99.90;;;;;;5074081;28;20291;-67
2022/09/29 02:02:42;;;;;;;6.07;4.43;;;7.70;99.90;;;;;;5056630;28;20699;-67
2022/09/29 02:05:18;;;;;;;9.00;4.87;;;7.70;99.90;;;;;;5073739;28;20283;-66
2022/09/29 02:07:46;;;;;;;6.57;4.57;;;7.70;99.90;;;;;;5073333;28;20279;-66
2022/09/29 02:10:21;;;;;;;11.17;4.47;;;7.70;99.90;;;;;;5073963;28;20354;-66
2022/09/29 02:12:49;;;;;;;6.55;4.53;;;7.70;99.90;;;;;;5073967;28;20325;-66
2022/09/29 02:15:21;;;;;;;6.67;4.83;;;7.60;99.90;;;;;;5055702;28;20040;-66
2022/09/29 02:17:51;;;;;;;7.30;4.60;;;7.60;99.90;;;;;;5074076;28;20283;-66
2022/09/29 02:20:18;;;;;;;7.63;4.60;;;7.60;99.90;;;;;;5073413;28;20441;-66
2022/09/29 02:22:44;;;;;;;8.50;4.80;;;7.60;99.90;;;;;;5073567;28;20310;-66
2022/09/29 02:25:12;;;;;;;8.50;4.83;;;7.60;99.90;;;;;;5055480;28;20325;-66
2022/09/29 02:27:39;;;;;;;7.77;4.43;;;7.50;99.90;;;;;;5055922;28;20401;-66
2022/09/29 02:30:05;;;;;;;7.63;5.00;;;7.50;99.90;;;;;;5072882;28;20705;-66
2022/09/29 02:32:33;;;;;;;7.17;4.37;;;7.50;99.90;;;;;;5073467;28;20321;-66
2022/09/29 02:35:00;;;;;;;7.70;4.70;;;7.50;99.90;;;;;;5073334;28;20274;-67
2022/09/29 02:37:46;;;;;;;7.80;4.80;;;7.50;99.90;;;;;;5073335;28;20290;-66
2022/09/29 02:40:20;;;;;;;5.97;4.50;;;7.50;99.90;;;;;;5072970;28;20759;-67
2022/09/29 02:43:11;;;;;;;8.00;4.80;;;7.40;99.90;;;;;;5055658;28;20291;-66
2022/09/29 02:45:55;;;;;;;6.43;4.67;;;7.40;99.90;;;;;;5055815;28;20373;-66
2022/09/29 02:48:50;;;;;;;6.93;4.70;;;7.50;99.90;;;;;;5055338;28;20362;-66
2022/09/29 02:51:36;;;;;;;6.93;4.57;;;7.40;99.90;;;;;;5038456;28;20287;-66
2022/09/29 02:54:24;;;;;;;6.43;4.40;;;7.40;99.90;;;;;;5072976;28;20665;-68
2022/09/29 02:57:16;;;;;;;6.93;4.47;;;7.40;99.90;;;;;;5073315;28;20279;-66
2022/09/29 03:00:10;;;;;;;5.77;4.17;;;7.40;99.90;;;;;;5073230;28;20362;-66
2022/09/29 03:02:41;;;;;;;6.13;4.47;;;7.30;99.90;;;;;;5073415;28;20278;-66
2022/09/29 03:05:13;;;;;;;7.33;4.97;;;7.30;99.90;;;;;;5072700;28;20278;-66
2022/09/29 03:07:39;;;;;;;6.80;4.53;;;7.30;99.90;;;;;;5072980;28;20279;-66
2022/09/29 03:10:06;;;;;;;6.20;4.10;;;7.30;99.90;;;;;;5054855;28;20270;-68
2022/09/29 03:12:32;;;;;;;7.10;4.00;;;7.30;99.90;;;;;;5073209;28;20048;-66
2022/09/29 03:14:58;;;;;;;5.57;4.07;;;7.30;99.90;;;;;;5072871;28;20880;-66
2022/09/29 03:17:24;;;;;;;5.60;4.27;;;7.30;99.90;;;;;;5071900;28;20346;-66
2022/09/29 03:19:49;;;;;;;5.47;4.07;;;7.30;99.90;;;;;;5072964;28;20109;-66
2022/09/29 03:22:15;;;;;;;5.47;4.30;;;7.20;99.90;;;;;;5038289;28;20091;-66
2022/09/29 03:24:41;;;;;;;6.27;4.63;;;7.20;99.90;;;;;;5072707;28;20043;-66
2022/09/29 03:27:08;;;;;;;6.10;4.27;;;7.20;99.90;;;;;;5072759;28;20098;-68
2022/09/29 03:29:35;;;;;;;6.75;4.65;;;7.20;99.90;;;;;;5072463;28;20511;-66
2022/09/29 03:32:01;;;;;;;5.90;4.50;;;7.20;99.90;;;;;;5072743;28;20114;-66
2022/09/29 03:34:27;;;;;;;7.47;4.65;;;7.20;99.90;;;;;;5072327;28;20283;-66
2022/09/29 03:36:52;;;;;;;7.10;4.90;;;7.20;99.90;;;;;;5072776;28;20055;-66
2022/09/29 03:39:18;;;;;;;6.40;4.53;;;7.20;99.90;;;;;;5072393;28;20040;-66
2022/09/29 03:41:44;;;;;;;7.07;4.43;;;7.20;99.90;;;;;;5072673;28;20098;-66
2022/09/29 03:44:09;;;;;;;6.40;4.87;;;7.20;99.90;;;;;;5072377;28;20080;-68
2022/09/29 03:46:35;;;;;;;8.60;4.93;;;7.20;99.90;;;;;;5055028;28;20037;-66
2022/09/29 03:49:01;;;;;;;6.53;4.63;;;7.20;99.90;;;;;;5072560;28;20477;-66
2022/09/29 03:51:26;;;;;;;6.60;4.33;;;7.10;99.90;;;;;;5072261;28;20051;-66
2022/09/29 03:53:53;;;;;;;6.27;4.27;;;7.00;99.90;;;;;;5072601;28;20044;-66
2022/09/29 03:56:19;;;;;;;5.50;3.80;;;7.00;99.90;;;;;;5072288;28;20083;-66
2022/09/29 03:58:44;;;;;;;5.77;4.30;;;7.00;99.90;;;;;;5072449;28;20083;-67
2022/09/29 04:01:10;;;;;;;7.80;4.50;;;7.00;99.90;;;;;;5072405;28;20040;-66
2022/09/29 04:03:36;;;;;;;6.43;4.73;;;7.00;99.90;;;;;;5072197;28;20127;-67
2022/09/29 04:06:01;;;;;;;5.23;4.10;;;7.00;99.90;;;;;;5054606;28;20048;-66
2022/09/29 04:08:27;;;;;;;6.63;4.90;;;7.00;99.90;;;;;;5054241;28;20045;-66
2022/09/29 04:10:53;;;;;;;5.60;3.87;;;7.00;99.90;;;;;;5072271;28;20076;-66
2022/09/29 04:13:20;;;;;;;6.97;4.67;;;7.00;99.90;;;;;;5072103;28;20048;-67
2022/09/29 04:15:49;;;;;;;6.20;4.57;;;7.10;99.90;;;;;;5072672;28;20052;-67
2022/09/29 04:18:15;;;;;;;5.77;4.10;;;7.00;99.90;;;;;;5034377;28;20485;-67
2022/09/29 04:20:41;;;;;;;6.07;4.73;;;6.90;99.90;;;;;;5052374;28;20302;-66
2022/09/29 04:23:06;;;;;;;9.43;4.50;;;6.90;99.90;;;;;;5052159;28;20049;-66
2022/09/29 04:25:32;;;;;;;7.40;4.23;;;6.90;99.90;;;;;;5051979;28;20057;-66
2022/09/29 04:27:59;;;;;;;8.70;5.47;;;6.90;99.90;;;;;;5051795;28;20091;-66
2022/09/29 04:30:24;;;;;;;8.87;5.67;;;6.90;99.90;;;;;;5036191;28;20061;-66
2022/09/29 04:32:50;;;;;;;6.23;5.00;;;6.90;99.90;;;;;;5055768;28;20280;-66
2022/09/29 04:35:16;;;;;;;9.73;6.83;;;6.90;99.90;;;;;;5055478;28;20385;-68
2022/09/29 04:37:41;;;;;;;10.43;7.43;;;6.90;99.90;;;;;;5055838;28;20051;-66
2022/09/29 04:40:08;;;;;;;12.00;7.30;;;6.90;99.90;;;;;;5055653;28;20077;-66
2022/09/29 04:42:34;;;;;;;21.87;8.03;;;6.90;99.90;;;;;;5037763;28;20049;-66
2022/09/29 04:45:00;;;;;;;13.43;8.20;;;7.00;99.90;;;;;;5055600;28;20337;-66
2022/09/29 04:47:26;;;;;;;15.23;7.40;;;7.00;99.90;;;;;;5055214;28;20369;-66
2022/09/29 04:49:51;;;;;;;11.77;7.70;;;7.00;99.90;;;;;;5055587;28;20499;-66
2022/09/29 04:52:17;;;;;;;13.20;7.67;;;7.00;99.90;;;;;;5055479;28;20076;-66
2022/09/29 04:54:43;;;;;;;9.10;7.50;;;7.00;99.90;;;;;;5037533;28;20056;-66
2022/09/29 04:57:09;;;;;;;8.77;7.37;;;6.90;99.90;;;;;;5055287;28;20049;-66
2022/09/29 04:59:35;;;;;;;9.38;7.50;;;6.90;99.90;;;;;;5054853;28;20056;-66
2022/09/29 05:02:00;;;;;;;8.77;6.77;;;6.90;99.90;;;;;;5054999;28;20041;-66
2022/09/29 05:04:26;;;;;;;11.97;7.97;;;6.90;99.90;;;;;;5037405;28;20106;-67
2022/09/29 05:06:52;;;;;;;9.43;6.87;;;6.90;99.90;;;;;;5055126;28;20517;-66
2022/09/29 05:09:17;;;;;;;10.87;6.60;;;6.90;99.90;;;;;;5037578;28;20083;-66
2022/09/29 05:11:43;;;;;;;10.10;7.10;;;6.90;99.90;;;;;;5054827;28;20049;-66
2022/09/29 05:14:10;;;;;;;9.47;6.87;;;6.90;99.90;;;;;;5055070;28;20049;-66
2022/09/29 05:16:35;;;;;;;10.18;6.97;;;6.90;99.90;;;;;;5043428;28;20044;-66
2022/09/29 05:19:02;;;;;;;12.53;7.57;;;6.90;99.90;;;;;;5074957;28;20059;-66
2022/09/29 05:21:27;;;;;;;10.10;6.77;;;6.90;99.90;;;;;;5074255;28;20455;-66
2022/09/29 05:23:53;;;;;;;9.63;6.47;;;6.90;99.90;;;;;;5075095;28;20365;-66
2022/09/29 05:26:19;;;;;;;13.67;8.60;;;6.90;99.90;;;;;;5056958;28;20048;-66
2022/09/29 05:28:46;;;;;;;12.13;7.30;;;6.80;99.90;;;;;;5074533;28;20098;-66
2022/09/29 05:31:13;;;;;;;11.10;7.13;;;6.70;99.90;;;;;;5074678;28;20036;-66
2022/09/29 05:33:40;;;;;;;8.40;7.05;;;6.70;99.90;;;;;;5074352;28;20118;-66
2022/09/29 05:36:11;;;;;;;9.13;6.90;;;6.80;99.90;;;;;;5074744;28;20388;-66
2022/09/29 05:38:38;;;;;;;8.82;6.97;;;6.80;99.90;;;;;;5074415;28;20135;-66
2022/09/29 05:41:05;;;;;;;9.80;6.78;;;6.70;99.90;;;;;;5074252;28;20048;-66
2022/09/29 05:43:31;;;;;;;10.35;6.90;;;6.80;99.90;;;;;;5073992;28;20492;-66
2022/09/29 05:46:04;;;;;;;8.70;6.57;;;6.80;99.90;;;;;;5074418;28;20045;-66
2022/09/29 05:48:30;;;;;;;9.15;6.88;;;6.70;99.90;;;;;;5056277;28;20047;-66
2022/09/29 05:50:57;;;;;;;10.83;6.67;;;6.80;99.90;;;;;;5056620;28;20052;-66
2022/09/29 05:53:23;;;;;;;8.68;6.97;;;6.80;99.90;;;;;;5073998;28;20420;-66
2022/09/29 05:55:49;;;;;;;9.38;7.72;;;6.80;99.90;;;;;;5073983;28;20138;-66
2022/09/29 05:58:15;;;;;;;10.00;7.80;;;6.80;99.90;;;;;;5056365;28;20040;-66
2022/09/29 06:00:41;;;;;;;11.80;8.20;;;6.80;99.90;;;;;;5073781;28;20370;-66
2022/09/29 06:03:07;;;;;;;16.10;10.47;;;6.90;99.90;;;;;;5074037;28;20048;-66
2022/09/29 06:05:37;;;;;;;15.87;10.60;;;6.90;99.90;;;;;;5073781;28;20047;-66
2022/09/29 06:08:02;;;;;;;17.92;11.02;;;7.00;99.90;;;;;;5073917;28;20086;-66
2022/09/29 06:10:28;;;;;;;18.47;11.70;;;7.00;99.90;;;;;;5073614;28;20117;-69
2022/09/29 06:12:55;;;;;;;20.00;12.80;;;7.00;99.90;;;;;;5073945;28;20080;-66
2022/09/29 06:15:21;;;;;;;17.13;10.88;;;7.10;99.90;;;;;;5073728;28;20378;-66
2022/09/29 06:17:53;;;;;;;17.17;11.82;;;7.10;99.90;;;;;;5072919;28;20405;-66
2022/09/29 06:20:19;;;;;;;19.17;11.52;;;7.10;99.90;;;;;;5073861;28;20205;-66
2022/09/29 06:22:45;;;;;;;19.27;12.67;;;7.20;99.90;;;;;;5055717;28;20072;-66
2022/09/29 06:25:10;;;;;;;17.13;11.87;;;7.20;99.90;;;;;;5056057;28;20045;-66
2022/09/29 06:27:36;;;;;;;14.57;10.53;;;7.30;99.90;;;;;;5073312;28;20499;-67
2022/09/29 06:30:02;;;;;;;12.47;9.07;;;7.20;99.90;;;;;;5073857;28;20094;-66
2022/09/29 06:32:28;;;;;;;12.30;9.20;;;7.30;99.90;;;;;;5073579;28;20442;-66
2022/09/29 06:37:42;;;;;;;10.03;7.63;;;7.40;99.90;;;;;;5073289;28;20056;-66
2022/09/29 06:40:09;;;;;;;10.53;8.73;;;7.40;99.90;;;;;;5073391;28;20330;-66
2022/09/29 06:42:35;;;;;;;9.53;8.47;;;7.50;99.90;;;;;;5073058;28;20274;-67
2022/09/29 06:45:01;;;;;;;8.97;7.80;;;7.50;99.90;;;;;;5073333;28;20290;-66
2022/09/29 06:47:26;;;;;;;9.97;7.17;;;7.50;99.90;;;;;;5073324;28;20079;-67
2022/09/29 06:49:52;;;;;;;10.37;8.10;;;7.60;99.90;;;;;;5073019;28;20044;-66
2022/09/29 06:52:18;;;;;;;10.10;8.97;;;7.70;99.90;;;;;;5072646;28;20144;-67
2022/09/29 06:54:43;;;;;;;9.67;8.40;;;7.80;99.90;;;;;;5072962;28;20052;-67
2022/09/29 06:57:09;;;;;;;9.00;7.57;;;7.90;99.90;;;;;;5073192;28;20123;-67
2022/09/29 06:59:35;;;;;;;9.57;8.20;;;7.90;99.90;;;;;;5055014;28;20491;-67
2022/09/29 07:02:01;;;;;;;10.27;8.23;;;8.00;99.90;;;;;;5073156;28;20131;-67
2022/09/29 07:04:27;;;;;;;12.53;8.67;;;8.10;99.90;;;;;;5073327;28;20115;-68
2022/09/29 07:06:53;;;;;;;10.03;8.40;;;8.40;99.90;;;;;;5072821;28;20448;-68
2022/09/29 07:09:19;;;;;;;9.03;7.10;;;9.10;99.90;;;;;;5073074;28;20053;-67
2022/09/29 07:11:48;;;;;;;10.70;7.00;;;10.00;99.90;;;;;;5072691;28;20231;-68
2022/09/29 07:14:18;;;;;;;8.10;6.80;;;11.00;99.90;;;;;;5072955;28;20322;-67
2022/09/29 07:16:47;;;;;;;9.93;6.73;;;11.70;99.90;;;;;;5072391;28;20283;-68
2022/09/29 07:19:15;;;;;;;9.60;7.13;;;12.00;99.90;;;;;;5072778;28;20824;-67
2022/09/29 07:21:40;;;;;;;10.83;7.20;;;11.90;99.90;;;;;;5072616;28;20348;-68
2022/09/29 07:24:07;;;;;;;10.40;6.67;;;;;;;;;;5072883;28;20357;-67
2022/09/29 07:26:33;;;;;;;11.63;6.70;;;;;;;;;;5072887;28;20040;-67
2022/09/29 07:28:59;;;;;;;12.97;7.20;;;;;;;;;;5054810;28;20282;-67
2022/09/29 07:31:25;;;;;;;13.63;9.07;;;11.20;99.90;;;;;;5054957;28;20549;-67
2022/09/29 07:33:51;;;;;;;9.70;8.70;;;11.10;99.90;;;;;;5072544;28;20278;-67
2022/09/29 07:36:19;;;;;;;10.17;8.53;;;10.90;99.90;;;;;;5073001;28;20067;-67
2022/09/29 07:38:46;;;;;;;9.43;8.20;;;10.80;99.90;;;;;;5072431;28;20271;-67
2022/09/29 07:41:12;;;;;;;10.97;8.63;;;10.80;99.90;;;;;;5072614;28;20295;-67
2022/09/29 07:43:39;;;;;;;9.43;8.43;;;10.80;99.90;;;;;;5072627;28;20813;-67
2022/09/29 07:46:06;;;;;;;13.20;8.63;;;10.70;99.90;;;;;;5072408;28;20132;-67
2022/09/29 07:48:32;;;;;;;9.60;8.23;;;10.80;99.90;;;;;;5072666;28;20275;-67
2022/09/29 07:51:10;;;;;;;14.67;9.27;;;10.90;99.90;;;;;;5054506;28;20623;-67
2022/09/29 07:53:36;;;;;;;11.87;8.83;;;10.90;99.90;;;;;;5072656;28;20278;-67
2022/09/29 07:56:13;;;;;;;11.07;9.60;;;11.00;99.90;;;;;;5072214;28;20318;-67
2022/09/29 07:58:39;;;;;;;15.47;9.60;;;11.00;99.90;;;;;;5072601;28;20279;-67
2022/09/29 08:01:09;;;;;;;9.97;8.83;;;11.10;99.90;;;;;;5072135;28;20763;-67
2022/09/29 08:03:35;;;;;;;12.20;9.43;;;11.10;99.90;;;;;;5072471;28;20369;-66
2022/09/29 08:06:02;;;;;;;13.00;9.73;;;11.10;99.90;;;;;;5075407;28;20294;-67
2022/09/29 08:08:29;;;;;;;11.70;10.23;;;11.20;99.90;;;;;;5058755;28;20287;-67
2022/09/29 08:11:06;;;;;;;12.80;10.83;;;11.10;99.90;;;;;;5075895;28;20266;-68
2022/09/29 08:13:33;;;;;;;14.17;11.70;;;11.10;99.90;;;;;;5076123;28;20803;-68
2022/09/29 08:16:00;;;;;;;14.27;11.17;;;11.10;99.90;;;;;;5075599;28;20278;-68
2022/09/29 08:18:27;;;;;;;13.03;11.67;;;11.10;99.90;;;;;;5037836;28;20341;-68
2022/09/29 08:20:53;;;;;;;12.77;10.83;;;11.20;99.90;;;;;;5037710;28;20672;-68
2022/09/29 08:23:20;;;;;;;15.67;11.50;;;11.10;99.90;;;;;;5055452;28;20292;-67
2022/09/29 08:25:45;;;;;;;13.30;11.90;;;11.10;99.90;;;;;;5055961;28;20401;-68
2022/09/29 08:28:11;;;;;;;13.80;11.57;;;11.10;99.90;;;;;;5038101;28;20283;-66
2022/09/29 08:30:37;;;;;;;14.87;11.93;;;11.20;99.90;;;;;;5055445;28;20103;-73
2022/09/29 08:33:03;;;;;;;15.23;13.47;;;11.20;99.90;;;;;;5055286;28;20044;-66
2022/09/29 08:35:29;;;;;;;15.10;12.97;;;11.30;99.90;;;;;;5055778;28;20045;-67
2022/09/29 08:37:56;;;;;;;18.70;12.60;;;11.30;99.90;;;;;;5055432;28;20797;-67
2022/09/29 08:40:22;;;;;;;16.00;12.83;;;11.30;99.90;;;;;;5055587;28;20048;-66
2022/09/29 08:43:16;;;;;;;14.93;13.10;;;11.30;99.90;;;;;;5037324;28;20775;-68
2022/09/29 08:46:25;;;;;;;15.90;13.37;;;11.30;99.90;;;;;;5037943;28;20311;-66
2022/09/29 08:48:52;;;;;;;15.47;12.80;;;11.30;99.90;;;;;;5055288;28;20303;-67
2022/09/29 08:51:28;;;;;;;15.03;13.13;;;11.30;99.90;;;;;;5055824;28;20313;-67
2022/09/29 08:53:57;;;;;;;15.87;12.57;;;11.30;99.90;;;;;;5055283;28;20290;-67
2022/09/29 08:56:25;;;;;;;18.83;13.67;;;11.40;99.90;;;;;;5055686;28;20284;-67
2022/09/29 08:58:51;;;;;;;15.17;13.57;;;11.40;99.90;;;;;;5055169;28;20744;-66
2022/09/29 09:01:40;;;;;;;19.20;14.60;;;11.40;99.90;;;;;;5055211;28;20299;-67
2022/09/29 09:04:43;;;;;;;17.43;13.67;;;11.50;99.90;;;;;;5054475;28;20759;-67
2022/09/29 09:07:43;;;;;;;15.13;13.53;;;11.60;99.90;;;;;;5054859;28;20285;-71
2022/09/29 09:10:20;;;;;;;14.17;12.27;;;11.60;99.90;;;;;;5054911;28;20280;-71
2022/09/29 09:13:13;;;;;;;14.63;12.33;;;11.70;99.90;;;;;;5055113;28;20284;-70
2022/09/29 09:15:52;;;;;;;14.23;11.40;;;11.70;99.90;;;;;;5054668;28;20311;-71
2022/09/29 09:19:00;;;;;;;17.40;12.93;;;11.70;99.90;;;;;;5055190;28;20298;-70
2022/09/29 09:21:37;;;;;;;16.53;12.00;;;11.80;99.90;;;;;;5069513;28;20310;-71
2022/09/29 09:24:21;;;;;;;16.00;12.73;;;11.80;99.90;;;;;;5074559;28;20287;-71
2022/09/29 09:26:47;;;;;;;16.03;11.83;;;11.80;99.90;;;;;;5075084;28;20425;-70
2022/09/29 09:29:18;;;;;;;12.40;10.80;;;11.90;99.90;;;;;;5074445;28;20759;-70
2022/09/29 09:32:07;;;;;;;11.30;8.17;;;11.90;99.90;;;;;;5074692;28;20047;-71
2022/09/29 09:34:33;;;;;;;10.23;8.83;;;;;;;;;;5074724;28;20312;-70
2022/09/29 09:37:12;;;;;;;12.03;9.10;;;12.10;99.90;;;;;;5074336;28;20366;-70
2022/09/29 09:39:59;;;;;;;13.73;8.87;;;12.10;99.90;;;;;;5074620;28;20267;-73
2022/09/29 09:42:29;;;;;;;11.93;8.77;;;12.10;99.90;;;;;;5056836;28;20298;-70
2022/09/29 09:45:04;;;;;;;12.20;9.50;;;12.10;99.90;;;;;;5074424;28;20286;-69
2022/09/29 09:47:56;;;;;;;13.55;9.93;;;12.10;99.90;;;;;;5073970;28;20402;-70
2022/09/29 09:50:24;;;;;;;14.40;11.03;;;;;;;;;;5073462;28;20049;-69
2022/09/29 09:53:11;;;;;;;13.83;10.23;;;12.10;99.90;;;;;;5074330;28;20290;-69
2022/09/29 09:55:37;;;;;;;10.67;8.00;;;12.20;99.90;;;;;;5074150;28;20759;-69
2022/09/29 09:58:19;;;;;;;7.87;6.50;;;12.20;99.90;;;;;;5073867;28;20286;-70
2022/09/29 10:01:11;;;;;;;10.77;8.30;;;12.30;99.90;;;;;;5074284;28;20043;-69
2022/09/29 10:03:37;;;;;;;12.80;7.80;;;12.30;99.90;;;;;;5074186;28;20329;-69
2022/09/29 10:06:05;;;;;;;10.17;7.33;;;12.30;99.90;;;;;;5073722;28;20282;-66
2022/09/29 10:08:38;;;;;;;9.27;5.70;;;12.40;99.90;;;;;;5074039;28;20282;-66
2022/09/29 10:11:31;;;;;;;7.47;5.70;;;12.40;99.90;;;;;;5073790;28;20290;-69
2022/09/29 10:14:12;;;;;;;10.97;6.53;;;12.40;99.90;;;;;;5069180;28;20297;-70
2022/09/29 10:17:11;;;;;;;5.93;3.90;;;12.40;99.90;;;;;;5073816;28;20312;-66
2022/09/29 10:19:54;;;;;;;6.47;5.00;;;12.40;99.90;;;;;;5002543;28;20291;-67
2022/09/29 10:22:20;;;;;;;7.80;5.10;;;12.40;99.90;;;;;;5073145;28;20639;-66
2022/09/29 10:24:47;;;;;;;7.63;5.47;;;12.50;99.90;;;;;;5073626;28;20352;-66
2022/09/29 10:27:24;;;;;;;8.07;5.43;;;12.50;99.90;;;;;;5072553;28;20287;-65
2022/09/29 10:29:51;;;;;;;9.37;5.40;;;12.50;99.90;;;;;;5073869;28;20059;-70
2022/09/29 10:32:37;;;;;;;9.43;5.63;;;12.50;99.90;;;;;;5073211;28;20681;-66
2022/09/29 10:35:17;;;;;;;7.88;4.53;;;12.50;99.90;;;;;;5073413;28;20283;-68
2022/09/29 10:37:49;;;;;;;5.10;3.40;;;12.60;99.90;;;;;;5073591;28;20135;-66
2022/09/29 10:40:16;;;;;;;7.33;3.83;;;;;;;;;;5055511;28;20310;-66
2022/09/29 10:42:49;;;;;;;5.67;3.70;;;12.60;99.90;;;;;;5073350;28;20746;-66
2022/09/29 10:45:22;;;;;;;5.23;3.13;;;12.60;99.90;;;;;;5073016;28;20283;-66
2022/09/29 10:47:57;;;;;;;4.50;2.50;;;12.70;99.90;;;;;;5055508;28;20340;-66
2022/09/29 10:50:29;;;;;;;4.20;2.30;;;12.70;99.90;;;;;;5072627;28;20278;-66
2022/09/29 10:52:57;;;;;;;5.37;2.40;;;12.70;99.90;;;;;;5073412;28;20041;-66
2022/09/29 10:55:28;;;;;;;5.40;3.07;;;;;;;;;;5072991;28;20330;-65
2022/09/29 10:57:57;;;;;;;4.47;2.10;;;12.80;99.90;;;;;;5073354;28;20311;-69
2022/09/29 11:00:32;;;;;;;4.30;2.00;;;12.80;99.90;;;;;;5072710;28;20298;-69
2022/09/29 11:03:18;;;;;;;4.32;2.10;;;12.80;99.90;;;;;;5073100;28;20703;-68
2022/09/29 11:06:03;;;;;;;4.00;2.20;;;12.90;99.90;;;;;;5073007;28;20044;-65
2022/09/29 11:08:30;;;;;;;4.93;2.20;;;12.90;99.90;;;;;;5072790;28;20294;-66
2022/09/29 11:11:16;;;;;;;6.07;2.73;;;12.80;99.90;;;;;;5072995;28;20279;-66
2022/09/29 11:13:44;;;;;;;3.93;2.27;;;12.90;99.90;;;;;;5073002;28;20279;-66
2022/09/29 11:16:14;;;;;;;4.73;2.37;;;13.00;99.90;;;;;;5072396;28;20298;-66
2022/09/29 11:18:42;;;;;;;5.97;2.23;;;13.10;99.90;;;;;;5072938;28;20348;-65
2022/09/29 11:21:46;;;;;;;3.93;1.90;;;13.10;99.90;;;;;;5072868;28;20344;-66
2022/09/29 11:24:25;;;;;;;4.27;1.90;;;13.20;99.90;;;;;;5034208;28;20294;-67
2022/09/29 11:27:26;;;;;;;4.17;1.43;;;13.30;99.90;;;;;;5073105;28;20275;-66
2022/09/29 11:30:14;;;;;;;4.30;1.60;;;13.40;99.90;;;;;;5072752;28;20759;-66
2022/09/29 11:32:40;;;;;;;3.43;1.90;;;13.50;99.90;;;;;;5072529;28;20742;-66
2022/09/29 11:35:20;;;;;;;3.10;1.90;;;13.50;99.90;;;;;;5072684;28;20286;-66
2022/09/29 11:38:04;;;;;;;3.60;1.80;;;13.40;99.90;;;;;;5064623;28;20497;-68
2022/09/29 11:40:30;;;;;;;4.40;1.95;;;13.60;99.90;;;;;;5069026;28;20301;-69
2022/09/29 11:43:11;;;;;;;3.70;1.50;;;13.50;99.90;;;;;;5071208;28;20044;-67
2022/09/29 11:45:47;;;;;;;3.60;1.80;;;13.40;99.90;;;;;;5049753;28;20141;-67
2022/09/29 11:48:38;;;;;;;3.60;1.90;;;13.50;99.90;;;;;;5069414;28;20271;-66
2022/09/29 11:51:39;;;;;;;3.23;1.30;;;13.40;99.90;;;;;;5069758;28;20278;-66
2022/09/29 11:54:46;;;;;;;4.23;1.10;;;13.50;99.90;;;;;;5063273;28;20667;-67
2022/09/29 11:57:50;;;;;;;3.87;1.40;;;13.50;99.90;;;;;;4958818;28;20305;-66
2022/09/29 12:00:33;;;;;;;2.90;1.43;;;13.60;99.90;;;;;;5017049;28;20841;-66
2022/09/29 12:03:03;;;;;;;4.37;1.20;;;;;;;;;;5046798;28;20326;-69
2022/09/29 12:05:48;;;;;;;2.30;1.20;;;14.00;99.90;;;;;;5050897;28;20295;-66
2022/09/29 12:08:29;;;;;;;2.47;1.13;;;;;;;;;;5067099;28;20290;-69
2022/09/29 12:10:59;;;;;;;1.57;0.83;;;;;;;;;;5067022;28;20412;-66
2022/09/29 12:13:31;;;;;;;3.47;1.00;;;;;;;;;;5069405;28;20290;-66
2022/09/29 12:16:09;;;;;;;3.57;1.03;;;;;;;;;;5067922;28;20287;-68
2022/09/29 12:18:50;;;;;;;2.20;1.20;;;;;;;;;;5070364;28;20289;-70
2022/09/29 12:21:25;;;;;;;2.60;1.03;;;14.70;99.90;;;;;;5070118;28;20306;-68
2022/09/29 12:23:52;;;;;;;2.50;1.00;;;14.70;99.90;;;;;;5052613;28;20994;-67
2022/09/29 12:26:23;;;;;;;2.83;1.30;;;14.70;99.90;;;;;;5067282;28;20346;-67
2022/09/29 12:29:01;;;;;;;4.27;1.17;;;14.80;99.90;;;;;;5070206;28;20278;-67
2022/09/29 12:31:46;;;;;;;1.73;1.00;;;14.80;99.90;;;;;;5052851;28;20697;-66
2022/09/29 12:34:16;;;;;;;1.03;0.87;;;14.90;99.90;;;;;;5053083;28;20278;-67
2022/09/29 12:37:09;;;;;;;2.20;1.37;;;14.90;99.90;;;;;;5067616;28;20295;-66
2022/09/29 12:39:55;;;;;;;2.10;1.10;;;14.90;99.90;;;;;;5070139;28;20282;-67
2022/09/29 12:43:01;;;;;;;3.33;0.90;;;14.80;99.90;;;;;;5070070;28;20282;-66
2022/09/29 12:45:40;;;;;;;2.70;1.00;;;14.70;99.90;;;;;;5069286;28;20401;-66
2022/09/29 12:48:27;;;;;;;2.03;1.03;;;14.60;99.90;;;;;;5067852;28;20279;-66
2022/09/29 12:50:58;;;;;;;2.00;0.90;;;14.50;99.90;;;;;;5069042;28;20758;-68
2022/09/29 12:53:50;;;;;;;1.40;0.97;;;14.40;99.90;;;;;;5070275;28;20287;-69
2022/09/29 12:56:29;;;;;;;1.70;0.93;;;14.40;99.90;;;;;;5067132;28;20286;-66
2022/09/29 12:59:32;;;;;;;1.73;1.00;;;14.30;99.90;;;;;;5069897;28;20931;-67
2022/09/29 13:02:03;;;;;;;1.93;1.00;;;14.30;99.90;;;;;;5069824;28;20294;-67
2022/09/29 13:05:06;;;;;;;2.67;0.93;;;14.20;99.90;;;;;;5069499;28;20366;-67
2022/09/29 13:07:49;;;;;;;1.77;1.00;;;14.10;99.90;;;;;;5067166;28;20291;-66
2022/09/29 13:10:40;;;;;;;3.80;1.70;;;14.10;99.90;;;;;;5052249;28;20294;-66
2022/09/29 13:13:24;;;;;;;2.67;1.20;;;14.10;99.90;;;;;;5069555;28;20279;-66
2022/09/29 13:16:02;;;;;;;3.03;1.10;;;14.00;99.90;;;;;;5050014;28;20291;-68
2022/09/29 13:18:50;;;;;;;2.97;1.30;;;14.00;99.90;;;;;;5068693;28;20912;-66
2022/09/29 13:21:31;;;;;;;3.60;1.33;;;14.00;99.90;;;;;;5069413;28;20290;-69
2022/09/29 13:24:18;;;;;;;2.37;1.20;;;14.00;99.90;;;;;;5069411;28;20344;-66
2022/09/29 13:27:27;;;;;;;2.33;1.03;;;14.10;99.90;;;;;;5066894;28;20282;-66